Time;durP1;ratioP1;P1;durP2;ratioP2;P2;SDS_P1;SDS_P2;PMS_P1;PMS_P2;Temp;Humidity;BMP_temperature;BMP_pressure;BME280_temperature;BME280_humidity;BME280_pressure;Samples;Min_cycle;Max_cycle;Signal;HPM_P1;HPM_P2
2023/03/12 00:02:21;;;;;;;5.97;4.20;;;;;8.90;100925.00;;;;5050511;28;20187;-73
2023/03/12 00:04:48;;;;;;;8.38;4.60;;;;;9.00;100917.00;;;;5042668;28;20303;-73
2023/03/12 00:07:15;;;;;;;7.32;4.18;;;;;9.00;100914.00;;;;5037281;28;20226;-73
2023/03/12 00:09:42;;;;;;;7.22;4.55;;;;;9.00;100911.00;;;;5048379;28;20204;-73
2023/03/12 00:12:10;;;;;;;5.55;3.63;;;;;9.00;100908.00;;;;5049750;28;20229;-73
2023/03/12 00:14:37;;;;;;;7.47;4.07;;;;;9.00;100901.00;;;;5034130;28;20199;-74
2023/03/12 00:17:05;;;;;;;5.15;4.20;;;;;9.10;100902.00;;;;5044239;28;20200;-74
2023/03/12 00:19:33;;;;;;;5.43;3.83;;;;;9.10;100896.00;;;;5050549;28;20208;-74
2023/03/12 00:22:01;;;;;;;6.72;4.80;;;;;9.10;100903.00;;;;5049390;28;20199;-74
2023/03/12 00:24:28;;;;;;;7.90;4.30;;;;;9.10;100905.00;;;;5046598;28;20222;-74
2023/03/12 00:26:55;;;;;;;7.43;4.07;;;;;9.10;100900.00;;;;5048535;28;20199;-74
2023/03/12 00:29:23;;;;;;;4.68;3.50;;;;;9.20;100896.00;;;;5047427;28;20212;-74
2023/03/12 00:31:50;;;;;;;5.43;3.50;;;;;9.20;100896.00;;;;5049339;28;20219;-74
2023/03/12 00:34:17;;;;;;;6.63;4.10;;;;;9.20;100896.00;;;;5042254;28;20195;-74
2023/03/12 00:36:46;;;;;;;5.93;3.40;;;;;9.20;100891.00;;;;5047587;28;20203;-74
2023/03/12 00:39:13;;;;;;;4.97;4.22;;;;;9.20;100891.00;;;;5047025;28;20215;-74
2023/03/12 00:41:41;;;;;;;6.45;3.53;;;;;9.20;100901.00;;;;5050047;28;20206;-74
2023/03/12 00:44:08;;;;;;;5.00;3.60;;;;;9.20;100898.00;;;;5035059;28;20213;-74
2023/03/12 00:46:35;;;;;;;6.28;3.67;;;;;9.30;100899.00;;;;5033511;28;20677;-74
2023/03/12 00:49:02;;;;;;;4.32;3.53;;;;;9.30;100894.00;;;;5047397;28;20200;-74
2023/03/12 00:51:30;;;;;;;4.78;3.15;;;;;9.30;100888.00;;;;5048893;28;20191;-74
2023/03/12 00:53:58;;;;;;;5.60;2.97;;;;;9.30;100896.00;;;;5048210;28;20210;-74
2023/03/12 00:56:26;;;;;;;4.47;3.65;;;;;9.30;100889.00;;;;5048398;28;20212;-74
2023/03/12 00:58:53;;;;;;;5.30;3.17;;;;;9.30;100897.00;;;;5046777;28;20192;-74
2023/03/12 01:01:20;;;;;;;5.65;3.35;;;;;9.30;100886.00;;;;5049578;28;20294;-74
2023/03/12 01:03:50;;;;;;;4.68;3.00;;;;;9.30;100882.00;;;;5047039;28;20295;-74
2023/03/12 01:06:17;;;;;;;5.25;3.35;;;;;9.30;100877.00;;;;5049178;28;20207;-74
2023/03/12 01:08:45;;;;;;;5.60;3.28;;;;;9.30;100863.00;;;;5043014;28;20207;-74
2023/03/12 01:11:15;;;;;;;5.35;3.60;;;;;9.30;100861.00;;;;5048307;28;20192;-74
2023/03/12 01:13:43;;;;;;;4.47;3.28;;;;;9.40;100854.00;;;;5045838;28;20219;-74
2023/03/12 01:16:11;;;;;;;4.70;3.42;;;;;9.40;100853.00;;;;5045372;28;20269;-74
2023/03/12 01:18:38;;;;;;;3.85;3.17;;;;;9.40;100851.00;;;;5046813;28;20670;-74
2023/03/12 01:21:06;;;;;;;3.45;3.00;;;;;9.40;100853.00;;;;5047610;28;20203;-74
2023/03/12 01:23:33;;;;;;;3.80;2.83;;;;;9.40;100854.00;;;;5047368;28;21005;-74
2023/03/12 01:26:00;;;;;;;2.97;2.47;;;;;9.40;100854.00;;;;5048020;28;20684;-74
2023/03/12 01:28:29;;;;;;;4.22;3.05;;;;;9.40;100860.00;;;;5046942;28;20203;-74
2023/03/12 01:30:56;;;;;;;2.80;2.40;;;;;9.40;100854.00;;;;5046435;28;20199;-74
2023/03/12 01:33:24;;;;;;;4.65;3.00;;;;;9.50;100858.00;;;;5046761;28;20215;-74
2023/03/12 01:35:51;;;;;;;4.03;2.83;;;;;9.50;100858.00;;;;5046813;28;20342;-74
2023/03/12 01:38:19;;;;;;;4.05;2.60;;;;;9.50;100855.00;;;;5047613;28;20191;-74
2023/03/12 01:40:47;;;;;;;4.03;2.78;;;;;9.50;100859.00;;;;5048209;28;20566;-74
2023/03/12 01:43:28;;;;;;;5.10;2.92;;;;;9.40;100854.00;;;;5045881;28;20211;-74
2023/03/12 01:46:21;;;;;;;2.92;2.42;;;;;9.40;100850.00;;;;5048298;28;20199;-74
2023/03/12 01:48:53;;;;;;;3.28;2.42;;;;;9.50;100839.00;;;;5036655;28;20250;-74
2023/03/12 01:51:22;;;;;;;2.55;2.10;;;;;9.50;100838.00;;;;5028224;28;20203;-74
2023/03/12 01:53:53;;;;;;;6.13;2.22;;;;;9.50;100834.00;;;;5035083;28;20219;-74
2023/03/12 01:56:21;;;;;;;3.63;2.13;;;;;9.60;100834.00;;;;5047438;28;20284;-74
2023/03/12 01:58:55;;;;;;;2.38;2.10;;;;;9.50;100837.00;;;;5038656;28;20199;-74
2023/03/12 02:01:24;;;;;;;2.78;2.33;;;;;9.60;100828.00;;;;5048045;28;20202;-74
2023/03/12 02:03:53;;;;;;;3.45;2.30;;;;;9.60;100834.00;;;;5045922;28;20206;-74
2023/03/12 02:06:26;;;;;;;4.47;2.65;;;;;9.60;100832.00;;;;5047008;28;20214;-74
2023/03/12 02:08:54;;;;;;;3.17;2.20;;;;;9.70;100822.00;;;;5036875;28;20243;-74
2023/03/12 02:11:21;;;;;;;3.33;2.35;;;;;9.70;100818.00;;;;5047323;28;20207;-74
2023/03/12 02:13:50;;;;;;;3.10;2.50;;;;;9.70;100812.00;;;;5038565;28;20231;-74
2023/03/12 02:16:17;;;;;;;2.85;2.10;;;;;9.70;100804.00;;;;5030641;28;20208;-74
2023/03/12 02:18:46;;;;;;;3.85;2.30;;;;;9.70;100807.00;;;;5044881;28;20842;-74
2023/03/12 02:21:20;;;;;;;3.30;2.22;;;;;9.70;100803.00;;;;5044735;28;20192;-74
2023/03/12 02:23:54;;;;;;;5.45;2.42;;;;;9.70;100797.00;;;;5040887;28;20205;-74
2023/03/12 02:26:26;;;;;;;3.42;2.17;;;;;9.70;100797.00;;;;5044889;28;20199;-74
2023/03/12 02:28:54;;;;;;;2.63;1.90;;;;;9.80;100792.00;;;;5043279;28;20230;-74
2023/03/12 02:31:25;;;;;;;4.47;2.15;;;;;9.70;100787.00;;;;5042651;28;20200;-74
2023/03/12 02:33:54;;;;;;;4.15;2.55;;;;;9.80;100781.00;;;;5042162;28;20223;-74
2023/03/12 02:36:22;;;;;;;4.00;2.50;;;;;9.80;100777.00;;;;5048371;28;20690;-74
2023/03/12 02:38:51;;;;;;;4.35;2.80;;;;;9.80;100774.00;;;;5039034;28;20202;-74
2023/03/12 02:41:24;;;;;;;3.72;2.10;;;;;9.80;100769.00;;;;5049553;28;20204;-74
2023/03/12 02:43:57;;;;;;;3.45;2.30;;;;;9.80;100762.00;;;;5043357;28;20192;-74
2023/03/12 02:46:25;;;;;;;3.55;2.30;;;;;9.80;100761.00;;;;5048290;28;20233;-74
2023/03/12 02:48:53;;;;;;;3.08;2.72;;;;;9.80;100763.00;;;;5036624;28;20202;-74
2023/03/12 02:51:20;;;;;;;3.08;2.15;;;;;9.80;100763.00;;;;5031834;28;20207;-75
2023/03/12 02:53:53;;;;;;;3.40;2.58;;;;;9.90;100763.00;;;;5046177;28;20219;-74
2023/03/12 02:56:23;;;;;;;4.38;2.03;;;;;9.90;100762.00;;;;5049635;28;20287;-74
2023/03/12 02:58:50;;;;;;;4.30;2.42;;;;;9.80;100749.00;;;;5050203;28;20192;-74
2023/03/12 03:01:18;;;;;;;4.93;2.45;;;;;9.90;100750.00;;;;5050544;28;20211;-74
2023/03/12 03:03:46;;;;;;;5.35;2.65;;;;;9.90;100742.00;;;;5051171;28;20234;-74
2023/03/12 03:06:14;;;;;;;3.85;2.15;;;;;9.90;100746.00;;;;5048320;28;20204;-74
2023/03/12 03:08:41;;;;;;;3.42;2.15;;;;;9.90;100734.00;;;;5046434;28;20239;-74
2023/03/12 03:11:09;;;;;;;4.70;2.38;;;;;9.90;100726.00;;;;5050967;28;20207;-75
2023/03/12 03:13:38;;;;;;;4.53;1.88;;;;;9.90;100727.00;;;;5048164;28;20219;-74
2023/03/12 03:16:06;;;;;;;2.53;2.08;;;;;9.90;100728.00;;;;5051028;28;20572;-74
2023/03/12 03:18:33;;;;;;;3.58;2.10;;;;;9.90;100733.00;;;;5050124;28;20199;-75
2023/03/12 03:21:02;;;;;;;3.33;1.98;;;;;9.90;100733.00;;;;5049455;28;20203;-74
2023/03/12 03:23:30;;;;;;;3.60;2.50;;;;;9.90;100727.00;;;;5043896;28;20196;-74
2023/03/12 03:25:58;;;;;;;3.22;2.20;;;;;9.90;100712.00;;;;5050100;28;20218;-74
2023/03/12 03:28:27;;;;;;;4.07;2.78;;;;;9.90;100712.00;;;;5048829;28;21005;-74
2023/03/12 03:31:00;;;;;;;4.70;1.92;;;;;9.90;100711.00;;;;5048736;28;20957;-74
2023/03/12 03:33:27;;;;;;;5.35;2.35;;;;;9.90;100702.00;;;;5042751;28;20211;-74
2023/03/12 03:35:55;;;;;;;3.03;2.03;;;;;9.90;100699.00;;;;5050037;28;20203;-74
2023/03/12 03:38:22;;;;;;;2.53;1.98;;;;;9.90;100710.00;;;;5047884;28;20638;-74
2023/03/12 03:40:50;;;;;;;2.55;1.80;;;;;9.90;100710.00;;;;5048723;28;20662;-74
2023/03/12 03:43:17;;;;;;;4.43;2.00;;;;;9.90;100696.00;;;;5050294;28;20200;-74
2023/03/12 03:45:44;;;;;;;3.92;1.85;;;;;9.90;100694.00;;;;5050402;28;20206;-74
2023/03/12 03:48:14;;;;;;;2.53;1.85;;;;;9.90;100682.00;;;;5048318;28;20215;-74
2023/03/12 03:50:41;;;;;;;2.00;1.80;;;;;9.90;100680.00;;;;5048704;28;20203;-74
2023/03/12 03:53:11;;;;;;;4.35;2.25;;;;;9.90;100685.00;;;;5049249;28;20227;-74
2023/03/12 03:55:39;;;;;;;5.28;2.22;;;;;9.90;100687.00;;;;5048656;28;20238;-74
2023/03/12 03:58:06;;;;;;;2.70;2.03;;;;;9.90;100689.00;;;;5047189;28;20194;-75
2023/03/12 04:00:34;;;;;;;2.67;2.05;;;;;9.90;100699.00;;;;5043522;28;20200;-74
2023/03/12 04:03:01;;;;;;;5.93;2.00;;;;;9.90;100691.00;;;;5048397;28;20195;-75
2023/03/12 04:05:30;;;;;;;3.90;2.05;;;;;9.90;100686.00;;;;5046182;28;20981;-74
2023/03/12 04:08:02;;;;;;;3.38;2.15;;;;;10.00;100690.00;;;;5041445;28;20231;-74
2023/03/12 04:10:30;;;;;;;3.38;2.03;;;;;9.90;100685.00;;;;5048463;28;20200;-74
2023/03/12 04:12:57;;;;;;;2.53;1.98;;;;;9.90;100676.00;;;;5049443;28;20224;-75
2023/03/12 04:15:25;;;;;;;4.50;2.35;;;;;9.90;100676.00;;;;5049801;28;20206;-74
2023/03/12 04:17:52;;;;;;;4.40;2.08;;;;;9.90;100671.00;;;;5048258;28;20200;-74
2023/03/12 04:20:20;;;;;;;3.97;2.08;;;;;9.90;100679.00;;;;5050798;28;20286;-74
2023/03/12 04:22:48;;;;;;;5.28;2.58;;;;;9.90;100682.00;;;;5049462;28;20678;-74
2023/03/12 04:25:16;;;;;;;2.58;2.10;;;;;9.90;100671.00;;;;5049818;28;20215;-74
2023/03/12 04:27:43;;;;;;;5.22;2.50;;;;;9.90;100661.00;;;;5048076;28;20207;-74
2023/03/12 04:30:11;;;;;;;5.07;2.63;;;;;9.90;100660.00;;;;5048302;28;20199;-74
2023/03/12 04:32:39;;;;;;;2.70;2.13;;;;;10.00;100660.00;;;;5042128;28;20215;-74
2023/03/12 04:35:06;;;;;;;5.90;2.58;;;;;10.00;100660.00;;;;5049859;28;20196;-74
2023/03/12 04:37:33;;;;;;;2.42;1.65;;;;;10.00;100654.00;;;;5049600;28;20700;-74
2023/03/12 04:40:06;;;;;;;3.25;2.03;;;;;9.90;100655.00;;;;5048874;28;20211;-74
2023/03/12 04:42:34;;;;;;;5.30;2.05;;;;;10.00;100642.00;;;;5045812;28;20290;-74
2023/03/12 04:45:02;;;;;;;1.95;1.75;;;;;10.00;100641.00;;;;5048923;28;20207;-74
2023/03/12 04:47:31;;;;;;;2.78;2.17;;;;;10.00;100638.00;;;;5046371;28;20196;-74
2023/03/12 04:49:58;;;;;;;3.05;2.13;;;;;10.00;100621.00;;;;5033416;28;20191;-74
2023/03/12 04:52:26;;;;;;;4.72;2.20;;;;;10.00;100623.00;;;;5048878;28;20204;-74
2023/03/12 04:54:53;;;;;;;3.15;2.42;;;;;10.00;100609.00;;;;5048639;28;20713;-74
2023/03/12 04:57:22;;;;;;;3.63;2.25;;;;;10.00;100605.00;;;;5048331;28;20196;-74
2023/03/12 04:59:49;;;;;;;3.88;2.40;;;;;10.00;100610.00;;;;5047695;28;20207;-74
2023/03/12 05:02:17;;;;;;;3.40;1.73;;;;;10.10;100601.00;;;;5049229;28;20245;-75
2023/03/12 05:04:44;;;;;;;5.07;2.15;;;;;10.10;100590.00;;;;5049765;28;20210;-74
2023/03/12 05:07:11;;;;;;;4.05;2.60;;;;;10.10;100580.00;;;;5029525;28;21054;-74
2023/03/12 05:09:40;;;;;;;6.95;2.08;;;;;10.10;100573.00;;;;5037883;28;20203;-74
2023/03/12 05:12:08;;;;;;;2.90;2.38;;;;;10.10;100570.00;;;;5048509;28;20199;-74
2023/03/12 05:14:38;;;;;;;2.85;2.00;;;;;10.10;100567.00;;;;5048416;28;20224;-74
2023/03/12 05:17:06;;;;;;;3.80;2.22;;;;;10.10;100563.00;;;;5049022;28;20214;-74
2023/03/12 05:19:33;;;;;;;7.03;2.17;;;;;10.10;100563.00;;;;5049037;28;20286;-74
2023/03/12 05:22:01;;;;;;;3.30;2.17;;;;;10.00;100569.00;;;;5045918;28;20215;-74
2023/03/12 05:24:28;;;;;;;3.60;2.42;;;;;10.00;100571.00;;;;5048240;28;20308;-74
2023/03/12 05:26:55;;;;;;;2.95;2.00;;;;;10.00;100569.00;;;;5047635;28;20294;-75
2023/03/12 05:29:23;;;;;;;2.88;2.03;;;;;10.00;100570.00;;;;5049177;28;20194;-74
2023/03/12 05:31:54;;;;;;;4.57;2.47;;;;;10.00;100570.00;;;;5045138;28;20199;-75
2023/03/12 05:34:21;;;;;;;3.80;2.13;;;;;10.10;100562.00;;;;5028559;28;20643;-74
2023/03/12 05:36:48;;;;;;;4.97;2.38;;;;;10.10;100560.00;;;;5041747;28;20199;-74
2023/03/12 05:39:15;;;;;;;5.63;2.38;;;;;10.10;100553.00;;;;5046098;28;20199;-74
2023/03/12 05:41:43;;;;;;;4.65;2.10;;;;;10.10;100556.00;;;;5045642;28;20199;-74
2023/03/12 05:44:12;;;;;;;3.83;1.90;;;;;10.10;100554.00;;;;5047011;28;20196;-74
2023/03/12 05:46:39;;;;;;;3.53;2.47;;;;;10.10;100555.00;;;;5049099;28;20192;-74
2023/03/12 05:49:08;;;;;;;4.32;2.95;;;;;10.10;100551.00;;;;5048407;28;20208;-74
2023/03/12 05:51:35;;;;;;;3.20;2.10;;;;;10.10;100552.00;;;;5046815;28;20203;-74
2023/03/12 05:54:03;;;;;;;3.65;2.42;;;;;10.10;100549.00;;;;5046185;28;20226;-74
2023/03/12 05:56:31;;;;;;;2.63;2.00;;;;;10.10;100551.00;;;;5046445;28;20577;-74
2023/03/12 05:58:58;;;;;;;3.72;2.28;;;;;10.10;100552.00;;;;5048151;28;20199;-74
2023/03/12 06:01:27;;;;;;;3.08;2.40;;;;;10.10;100547.00;;;;5047700;28;20697;-73
2023/03/12 06:03:55;;;;;;;3.80;2.47;;;;;10.10;100549.00;;;;5047103;28;20206;-74
2023/03/12 06:06:25;;;;;;;3.25;2.50;;;;;10.10;100547.00;;;;5046989;28;20195;-74
2023/03/12 06:08:53;;;;;;;2.65;2.08;;;;;10.20;100558.00;;;;5045038;28;20202;-74
2023/03/12 06:11:20;;;;;;;4.68;2.60;;;;;10.20;100560.00;;;;5045365;28;20202;-73
2023/03/12 06:13:48;;;;;;;2.60;1.95;;;;;10.20;100564.00;;;;5039243;28;20290;-73
2023/03/12 06:16:18;;;;;;;3.03;2.25;;;;;10.20;100568.00;;;;5039877;28;20211;-73
2023/03/12 06:18:46;;;;;;;3.83;2.45;;;;;10.20;100555.00;;;;5043488;28;20204;-74
2023/03/12 06:21:15;;;;;;;4.38;2.53;;;;;10.20;100554.00;;;;5043607;28;22451;-76
2023/03/12 06:23:44;;;;;;;3.85;2.67;;;;;10.10;100558.00;;;;5042999;28;20682;-75
2023/03/12 06:26:13;;;;;;;3.22;2.17;;;;;10.10;100555.00;;;;5041922;28;20203;-76
2023/03/12 06:28:40;;;;;;;4.82;2.28;;;;;10.20;100557.00;;;;5046700;28;20204;-76
2023/03/12 06:31:08;;;;;;;4.93;2.50;;;;;10.20;100554.00;;;;5043046;28;20204;-76
2023/03/12 06:33:35;;;;;;;3.45;2.28;;;;;10.10;100545.00;;;;5043939;28;20195;-76
2023/03/12 06:36:06;;;;;;;4.18;2.35;;;;;10.10;100537.00;;;;5043309;28;20403;-75
2023/03/12 06:38:33;;;;;;;4.40;2.15;;;;;10.10;100538.00;;;;5043707;28;20207;-75
2023/03/12 06:41:05;;;;;;;3.17;2.55;;;;;10.10;100533.00;;;;5041153;28;20845;-76
2023/03/12 06:43:33;;;;;;;4.72;2.40;;;;;10.10;100534.00;;;;5041185;28;20207;-76
2023/03/12 06:46:01;;;;;;;2.72;2.15;;;;;10.10;100531.00;;;;5039937;28;20202;-76
2023/03/12 06:48:32;;;;;;;2.63;2.35;;;;;10.10;100526.00;;;;5035980;28;20207;-76
2023/03/12 06:50:59;;;;;;;3.40;2.30;;;;;10.20;100526.00;;;;5038852;28;20682;-75
2023/03/12 06:53:26;;;;;;;3.10;2.20;;;;;10.20;100526.00;;;;5046891;28;20580;-75
2023/03/12 06:55:54;;;;;;;3.67;2.80;;;;;10.20;100521.00;;;;5040203;28;20218;-76
2023/03/12 06:58:23;;;;;;;4.88;2.55;;;;;10.20;100514.00;;;;5034234;28;20204;-76
2023/03/12 07:00:50;;;;;;;4.00;2.55;;;;;10.20;100508.00;;;;5041018;28;20673;-76
2023/03/12 07:03:17;;;;;;;3.38;2.25;;;;;10.20;100506.00;;;;5046841;28;20204;-73
2023/03/12 07:05:45;;;;;;;4.38;2.60;;;;;10.20;100506.00;;;;5039027;28;20203;-74
2023/03/12 07:08:14;;;;;;;3.75;2.25;;;;;10.20;100499.00;;;;5044597;28;20228;-74
2023/03/12 07:10:41;;;;;;;5.05;2.88;;;;;10.20;100493.00;;;;5044749;28;20200;-74
2023/03/12 07:13:09;;;;;;;4.93;2.38;;;;;10.20;100497.00;;;;5044089;28;20196;-74
2023/03/12 07:15:38;;;;;;;3.97;2.75;;;;;10.20;100491.00;;;;5046774;28;20231;-74
2023/03/12 07:18:05;;;;;;;3.63;2.80;;;;;10.30;100485.00;;;;5046741;28;20204;-74
2023/03/12 07:20:33;;;;;;;3.58;2.25;;;;;10.20;100500.00;;;;5035502;28;20203;-73
2023/03/12 07:23:01;;;;;;;3.80;2.58;;;;;10.20;100485.00;;;;5047499;28;20203;-73
2023/03/12 07:25:28;;;;;;;3.83;2.60;;;;;10.20;100497.00;;;;5042172;28;20216;-73
2023/03/12 07:27:55;;;;;;;4.20;2.40;;;;;10.20;100496.00;;;;5048200;28;20203;-74
2023/03/12 07:30:23;;;;;;;3.45;2.30;;;;;10.30;100486.00;;;;5048697;28;20200;-74
2023/03/12 07:32:51;;;;;;;3.03;2.40;;;;;10.20;100494.00;;;;5048104;28;20203;-74
2023/03/12 07:35:19;;;;;;;4.88;2.55;;;;;10.20;100494.00;;;;5045396;28;20227;-74
2023/03/12 07:37:46;;;;;;;6.72;2.95;;;;;10.30;100502.00;;;;5050197;28;20204;-75
2023/03/12 07:40:13;;;;;;;5.15;2.42;;;;;10.30;100498.00;;;;5044525;28;20196;-74
2023/03/12 07:42:41;;;;;;;3.13;2.63;;;;;10.30;100500.00;;;;5045534;28;20203;-75
2023/03/12 07:45:09;;;;;;;6.43;2.55;;;;;10.30;100511.00;;;;5044259;28;20241;-75
2023/03/12 07:47:36;;;;;;;3.58;2.40;;;;;10.30;100500.00;;;;5045983;28;20205;-75
2023/03/12 07:50:05;;;;;;;3.42;2.17;;;;;10.20;100508.00;;;;5046018;28;20200;-75
2023/03/12 07:52:32;;;;;;;7.82;2.35;;;;;10.30;100514.00;;;;5048668;28;20211;-75
2023/03/12 07:55:00;;;;;;;4.22;2.40;;;;;10.30;100511.00;;;;5046269;28;20223;-75
2023/03/12 07:57:27;;;;;;;2.83;2.38;;;;;10.30;100510.00;;;;5045072;28;20203;-75
2023/03/12 07:59:54;;;;;;;3.10;2.58;;;;;10.40;100508.00;;;;5046616;28;20665;-75
2023/03/12 08:02:22;;;;;;;4.38;2.53;;;;;10.40;100514.00;;;;5044858;28;20191;-74
2023/03/12 08:04:49;;;;;;;5.57;3.10;;;;;10.40;100516.00;;;;5045949;28;20681;-75
2023/03/12 08:07:18;;;;;;;2.97;2.38;;;;;10.40;100524.00;;;;5049046;28;20234;-75
2023/03/12 08:09:48;;;;;;;3.22;2.78;;;;;10.50;100518.00;;;;5046118;28;20669;-75
2023/03/12 08:12:15;;;;;;;4.75;3.10;;;;;10.50;100510.00;;;;5044378;28;20682;-75
2023/03/12 08:14:42;;;;;;;3.42;2.00;;;;;10.50;100515.00;;;;5043649;28;20222;-74
2023/03/12 08:17:10;;;;;;;3.30;2.65;;;;;10.50;100512.00;;;;5049671;28;20206;-75
2023/03/12 08:19:37;;;;;;;4.57;2.85;;;;;10.50;100499.00;;;;5047236;28;20197;-74
2023/03/12 08:22:06;;;;;;;4.63;3.08;;;;;10.60;100511.00;;;;5047988;28;20199;-75
2023/03/12 08:24:35;;;;;;;6.00;2.92;;;;;10.60;100514.00;;;;5046142;28;20219;-75
2023/03/12 08:27:02;;;;;;;3.97;3.08;;;;;10.70;100502.00;;;;5047215;28;20650;-75
2023/03/12 08:29:31;;;;;;;3.25;2.92;;;;;10.70;100507.00;;;;5045892;28;20214;-75
2023/03/12 08:31:58;;;;;;;3.95;3.15;;;;;10.80;100504.00;;;;5045410;28;20227;-75
2023/03/12 08:34:26;;;;;;;5.53;3.47;;;;;10.80;100505.00;;;;5047486;28;20223;-75
2023/03/12 08:36:53;;;;;;;5.88;2.97;;;;;10.90;100514.00;;;;5045529;28;20666;-75
2023/03/12 08:39:20;;;;;;;3.83;3.13;;;;;10.90;100508.00;;;;5044073;28;20203;-75
2023/03/12 08:41:50;;;;;;;3.45;3.10;;;;;10.90;100500.00;;;;5046324;28;20204;-75
2023/03/12 08:44:17;;;;;;;5.22;3.72;;;;;11.00;100520.00;;;;5047929;28;20207;-75
2023/03/12 08:46:46;;;;;;;4.03;3.13;;;;;11.00;100520.00;;;;5040639;28;20200;-75
2023/03/12 08:49:13;;;;;;;3.90;3.00;;;;;11.00;100515.00;;;;5043525;28;20192;-75
2023/03/12 08:51:41;;;;;;;3.55;3.17;;;;;11.10;100517.00;;;;5045246;28;20195;-74
2023/03/12 08:54:08;;;;;;;3.58;2.95;;;;;11.10;100516.00;;;;5041369;28;20203;-74
2023/03/12 08:56:40;;;;;;;4.22;3.38;;;;;11.10;100527.00;;;;5040727;28;21941;-75
2023/03/12 08:59:09;;;;;;;3.70;3.05;;;;;11.20;100525.00;;;;5041667;28;20199;-75
2023/03/12 09:01:36;;;;;;;5.82;3.55;;;;;11.20;100524.00;;;;5044718;28;20207;-75
2023/03/12 09:04:04;;;;;;;3.83;3.15;;;;;11.30;100539.00;;;;5046739;28;20254;-75
2023/03/12 09:06:34;;;;;;;4.60;3.45;;;;;11.30;100536.00;;;;5043878;28;20210;-75
2023/03/12 09:09:03;;;;;;;5.55;3.95;;;;;11.40;100535.00;;;;5047042;28;20195;-75
2023/03/12 09:11:31;;;;;;;5.35;3.83;;;;;11.40;100522.00;;;;5043865;28;20195;-75
2023/03/12 09:13:59;;;;;;;6.18;4.40;;;;;11.40;100530.00;;;;5048876;28;20207;-75
2023/03/12 09:16:27;;;;;;;4.95;3.88;;;;;11.50;100528.00;;;;5037955;28;20227;-75
2023/03/12 09:18:55;;;;;;;5.25;4.40;;;;;11.50;100519.00;;;;5046587;28;20203;-75
2023/03/12 09:21:23;;;;;;;4.65;3.97;;;;;11.50;100520.00;;;;5041696;28;20214;-75
2023/03/12 09:23:50;;;;;;;6.18;3.65;;;;;11.60;100510.00;;;;5040633;28;20203;-76
2023/03/12 09:26:17;;;;;;;5.00;4.13;;;;;11.70;100518.00;;;;5043555;28;20202;-75
2023/03/12 09:28:44;;;;;;;5.93;4.63;;;;;11.70;100515.00;;;;5045845;28;20204;-75
2023/03/12 09:31:12;;;;;;;6.82;5.60;;;;;11.80;100495.00;;;;5046012;28;20196;-75
2023/03/12 09:33:41;;;;;;;6.63;5.00;;;;;11.80;100508.00;;;;5040856;28;20211;-75
2023/03/12 09:36:09;;;;;;;6.75;4.68;;;;;11.90;100514.00;;;;5040091;28;20220;-75
2023/03/12 09:38:36;;;;;;;5.90;4.82;;;;;11.90;100526.00;;;;5043546;28;20199;-76
2023/03/12 09:41:05;;;;;;;6.60;4.97;;;;;12.00;100519.00;;;;5036683;28;20204;-75
2023/03/12 09:43:37;;;;;;;6.05;4.88;;;;;12.00;100515.00;;;;5046260;28;20210;-76
2023/03/12 09:46:11;;;;;;;7.53;5.68;;;;;12.10;100523.00;;;;5046491;28;20206;-75
2023/03/12 09:48:38;;;;;;;7.00;5.88;;;;;12.20;100526.00;;;;5043345;28;20201;-76
2023/03/12 09:51:15;;;;;;;10.55;6.65;;;;;12.20;100525.00;;;;5036376;28;20204;-75
2023/03/12 09:53:47;;;;;;;8.73;5.85;;;;;12.30;100526.00;;;;5045871;28;20200;-75
2023/03/12 09:56:17;;;;;;;7.35;5.72;;;;;12.40;100530.00;;;;5033553;28;20226;-75
2023/03/12 09:58:47;;;;;;;8.98;6.10;;;;;12.40;100535.00;;;;5045635;28;20200;-75
2023/03/12 10:01:35;;;;;;;7.43;6.40;;;;;12.40;100537.00;;;;5046494;28;20612;-75
2023/03/12 10:04:28;;;;;;;6.60;5.90;;;;;12.50;100542.00;;;;5045818;28;20218;-75
2023/03/12 10:07:08;;;;;;;6.45;5.43;;;;;12.60;100533.00;;;;5042644;28;20670;-76
2023/03/12 10:10:03;;;;;;;7.72;6.40;;;;;12.60;100534.00;;;;5028584;28;20198;-76
2023/03/12 10:12:40;;;;;;;7.30;6.28;;;;;12.70;100533.00;;;;5037955;28;20199;-75
2023/03/12 10:15:22;;;;;;;9.63;6.95;;;;;12.80;100531.00;;;;5037180;28;20222;-75
2023/03/12 10:17:58;;;;;;;8.77;6.32;;;;;12.80;100527.00;;;;5033763;28;20212;-75
2023/03/12 10:20:41;;;;;;;8.57;6.20;;;;;12.90;100531.00;;;;5031241;28;20210;-75
2023/03/12 10:23:19;;;;;;;6.85;5.60;;;;;13.00;100521.00;;;;5043779;28;20213;-75
2023/03/12 10:25:52;;;;;;;11.43;6.43;;;;;13.10;100516.00;;;;5044175;28;20212;-75
2023/03/12 10:28:29;;;;;;;8.77;7.05;;;;;13.20;100517.00;;;;5034674;28;20677;-76
2023/03/12 10:31:01;;;;;;;9.45;6.80;;;;;13.30;100526.00;;;;5031511;28;20683;-75
2023/03/12 10:33:40;;;;;;;7.53;6.28;;;;;13.30;100521.00;;;;5041611;28;20196;-76
2023/03/12 10:36:16;;;;;;;8.18;6.68;;;;;13.50;100523.00;;;;5044304;28;20226;-76
2023/03/12 10:38:47;;;;;;;8.15;6.35;;;;;13.60;100526.00;;;;5042332;28;20203;-76
2023/03/12 10:41:16;;;;;;;8.10;6.30;;;;;13.60;100531.00;;;;5047110;28;20211;-75
2023/03/12 10:43:44;;;;;;;7.65;5.13;;;;;13.70;100530.00;;;;5043289;28;20676;-76
2023/03/12 10:46:38;;;;;;;10.52;5.85;;;;;13.80;100523.00;;;;5040324;28;20209;-76
2023/03/12 10:49:31;;;;;;;6.38;4.72;;;;;13.90;100521.00;;;;5043185;28;20293;-76
2023/03/12 10:52:01;;;;;;;7.88;4.93;;;;;14.10;100512.00;;;;5027937;28;20195;-79
2023/03/12 10:54:32;;;;;;;9.32;5.93;;;;;14.20;100515.00;;;;5049388;28;20207;-78
2023/03/12 10:56:59;;;;;;;7.35;5.20;;;;;14.30;100519.00;;;;5049652;28;20227;-76
2023/03/12 10:59:30;;;;;;;11.65;5.93;;;;;14.40;100527.00;;;;5051036;28;20211;-76
2023/03/12 11:01:58;;;;;;;10.98;4.80;;;;;14.50;100528.00;;;;5049166;28;20930;-76
2023/03/12 11:04:28;;;;;;;8.95;5.38;;;;;14.60;100519.00;;;;5034486;28;20207;-76
2023/03/12 11:07:18;;;;;;;6.65;4.85;;;;;14.50;100522.00;;;;5049506;28;20258;-76
2023/03/12 11:10:02;;;;;;;9.35;4.90;;;;;14.70;100519.00;;;;5047638;28;20192;-76
2023/03/12 11:12:30;;;;;;;6.60;4.00;;;;;14.80;100521.00;;;;5049291;28;20588;-76
2023/03/12 11:14:58;;;;;;;9.95;4.43;;;;;14.90;100527.00;;;;5049718;28;20207;-76
2023/03/12 11:17:28;;;;;;;7.68;3.97;;;;;15.00;100517.00;;;;5051195;28;20210;-76
2023/03/12 11:19:55;;;;;;;11.13;4.50;;;;;15.10;100540.00;;;;5044981;28;20192;-77
2023/03/12 11:22:31;;;;;;;6.13;3.90;;;;;15.10;100548.00;;;;5043197;28;20200;-77
2023/03/12 11:25:03;;;;;;;7.55;3.75;;;;;15.20;100549.00;;;;5044891;28;20218;-78
2023/03/12 11:27:40;;;;;;;10.10;4.38;;;;;15.20;100555.00;;;;5044618;28;20637;-76
2023/03/12 11:30:14;;;;;;;10.73;3.88;;;;;15.30;100557.00;;;;5044802;28;20199;-77
2023/03/12 11:32:45;;;;;;;6.93;3.33;;;;;15.30;100556.00;;;;5046600;28;20204;-79
2023/03/12 11:35:15;;;;;;;9.70;3.72;;;;;15.40;100557.00;;;;5044802;28;20195;-77
2023/03/12 11:37:52;;;;;;;10.32;3.53;;;;;15.40;100545.00;;;;5047150;28;20204;-79
2023/03/12 11:40:39;;;;;;;10.63;3.78;;;;;15.40;100542.00;;;;5045178;28;20203;-78
2023/03/12 11:43:22;;;;;;;7.55;3.15;;;;;15.50;100542.00;;;;5045589;28;20203;-79
2023/03/12 11:46:05;;;;;;;12.02;3.45;;;;;15.50;100548.00;;;;5048987;28;20230;-80
2023/03/12 11:48:44;;;;;;;6.10;3.15;;;;;15.60;100542.00;;;;5045620;28;20199;-78
2023/03/12 11:51:24;;;;;;;10.85;3.50;;;;;15.60;100540.00;;;;5032431;28;20206;-77
2023/03/12 11:54:10;;;;;;;8.98;3.70;;;;;15.60;100535.00;;;;5031231;28;20198;-77
2023/03/12 11:56:44;;;;;;;10.35;3.85;;;;;15.70;100534.00;;;;5041277;28;20226;-78
2023/03/12 11:59:38;;;;;;;7.53;2.80;;;;;15.70;100538.00;;;;5046602;28;20198;-77
2023/03/12 12:02:23;;;;;;;5.22;2.72;;;;;15.80;100518.00;;;;5044803;28;20196;-76
2023/03/12 12:05:18;;;;;;;14.45;3.70;;;;;15.80;100520.00;;;;5036336;28;20198;-77
2023/03/12 12:07:59;;;;;;;9.85;3.40;;;;;15.90;100517.00;;;;5044718;28;20227;-77
2023/03/12 12:10:31;;;;;;;9.38;2.85;;;;;16.00;100516.00;;;;5039582;28;20210;-77
2023/03/12 12:13:10;;;;;;;10.65;2.85;;;;;16.00;100512.00;;;;5039528;28;20633;-77
2023/03/12 12:15:46;;;;;;;9.70;3.58;;;;;16.10;100518.00;;;;5047036;28;20215;-78
2023/03/12 12:18:36;;;;;;;8.75;3.10;;;;;16.10;100523.00;;;;5047303;28;20203;-79
2023/03/12 12:21:08;;;;;;;10.05;3.35;;;;;16.20;100520.00;;;;5046134;28;20207;-78
2023/03/12 12:23:46;;;;;;;13.57;3.22;;;;;16.20;100524.00;;;;5049727;28;20226;-78
2023/03/12 12:26:16;;;;;;;6.80;2.83;;;;;16.30;100523.00;;;;5043301;28;21017;-78